createdAt,value
2023-01-29T00:02:10.380Z,14.88
2023-01-29T00:04:36.987Z,14.80
2023-01-29T00:07:03.757Z,16.20
2023-01-29T00:09:31.994Z,15.40
2023-01-29T00:11:58.676Z,16.17
2023-01-29T00:14:27.290Z,16.20
2023-01-29T00:16:54.346Z,13.85
2023-01-29T00:19:21.242Z,15.35
2023-01-29T00:21:47.836Z,16.55
2023-01-29T00:24:14.608Z,12.23
2023-01-29T00:26:42.504Z,13.70
2023-01-29T00:29:09.180Z,13.43
2023-01-29T00:31:35.984Z,17.45
2023-01-29T00:34:03.722Z,16.02
2023-01-29T00:36:30.431Z,12.70
2023-01-29T00:38:59.182Z,11.07
2023-01-29T00:41:49.099Z,14.60
2023-01-29T00:44:34.870Z,18.08
2023-01-29T00:47:01.766Z,13.75
2023-01-29T00:49:30.220Z,17.77
2023-01-29T00:52:15.249Z,16.13
2023-01-29T00:54:41.891Z,13.38
2023-01-29T00:57:08.733Z,16.05
2023-01-29T00:59:35.376Z,15.25
2023-01-29T01:02:20.762Z,12.60
2023-01-29T01:04:47.398Z,19.95
2023-01-29T01:07:14.000Z,13.68
2023-01-29T01:09:59.661Z,18.50
2023-01-29T01:12:26.470Z,15.75
2023-01-29T01:14:53.188Z,16.20
2023-01-29T01:17:19.856Z,12.48
2023-01-29T01:19:46.514Z,14.90
2023-01-29T01:22:13.402Z,14.15
2023-01-29T01:24:40.292Z,11.32
2023-01-29T01:27:06.970Z,18.70
2023-01-29T01:29:33.751Z,14.23
2023-01-29T01:32:00.516Z,13.82
2023-01-29T01:34:27.402Z,20.13
2023-01-29T01:36:56.066Z,11.80
2023-01-29T01:39:23.883Z,13.38
2023-01-29T01:41:53.672Z,14.32
2023-01-29T01:44:52.446Z,19.35
2023-01-29T01:47:39.085Z,15.95
2023-01-29T01:50:20.573Z,17.08
2023-01-29T01:52:55.498Z,17.55
2023-01-29T01:55:26.574Z,14.70
2023-01-29T01:57:59.040Z,13.82
2023-01-29T02:00:26.451Z,13.73
2023-01-29T02:03:13.040Z,16.33
2023-01-29T02:05:59.075Z,17.13
2023-01-29T02:08:56.563Z,14.07
2023-01-29T02:11:24.217Z,20.50
2023-01-29T02:13:53.779Z,15.88
2023-01-29T02:16:24.054Z,13.65
2023-01-29T02:18:51.267Z,13.38
2023-01-29T02:21:33.209Z,15.48
2023-01-29T02:24:33.468Z,14.95
2023-01-29T02:27:16.160Z,15.95
2023-01-29T02:29:47.584Z,13.90
2023-01-29T02:32:28.583Z,17.40
2023-01-29T02:35:29.901Z,15.07
2023-01-29T02:38:11.533Z,17.13
2023-01-29T02:40:55.742Z,15.00
2023-01-29T02:43:40.343Z,17.20
2023-01-29T02:46:16.117Z,14.50
2023-01-29T02:49:10.527Z,17.10
2023-01-29T02:51:58.897Z,13.82
2023-01-29T02:54:37.496Z,18.35
2023-01-29T02:57:44.569Z,14.40
2023-01-29T03:00:15.009Z,15.35
2023-01-29T03:02:50.790Z,16.48
2023-01-29T03:05:33.831Z,17.55
2023-01-29T03:08:10.195Z,16.80
2023-01-29T03:11:02.728Z,10.50
2023-01-29T03:13:40.380Z,12.30
2023-01-29T03:16:27.328Z,17.35
2023-01-29T03:19:10.311Z,15.75
2023-01-29T03:22:04.299Z,17.25
2023-01-29T03:25:19.395Z,8.90
2023-01-29T03:28:14.170Z,8.10
2023-01-29T03:31:17.656Z,14.60
2023-01-29T03:34:16.597Z,14.55
2023-01-29T03:36:59.207Z,12.20
2023-01-29T03:39:31.371Z,20.67
2023-01-29T03:42:12.067Z,18.65
2023-01-29T03:44:57.556Z,17.15
2023-01-29T03:47:48.627Z,15.27
2023-01-29T03:50:36.699Z,14.40
2023-01-29T03:53:43.949Z,13.13
2023-01-29T03:56:33.300Z,17.15
2023-01-29T03:59:04.584Z,18.42
2023-01-29T04:01:40.387Z,15.88
2023-01-29T04:04:16.493Z,15.88
2023-01-29T04:06:46.028Z,14.25
2023-01-29T04:09:36.374Z,16.23
2023-01-29T04:12:11.281Z,11.52
2023-01-29T04:14:38.972Z,15.80
2023-01-29T04:17:17.628Z,15.73
2023-01-29T04:19:44.800Z,18.40
2023-01-29T04:22:19.615Z,18.38
2023-01-29T04:24:48.235Z,19.05
2023-01-29T04:28:01.793Z,19.60
2023-01-29T04:30:56.923Z,16.75
2023-01-29T04:33:42.373Z,16.73
2023-01-29T04:36:19.650Z,15.43
2023-01-29T04:38:58.417Z,15.98
2023-01-29T04:41:32.245Z,18.00
2023-01-29T04:44:22.085Z,17.60
2023-01-29T04:47:03.843Z,17.83
2023-01-29T04:49:43.604Z,15.98
2023-01-29T04:52:16.283Z,18.40
2023-01-29T04:54:54.497Z,14.70
2023-01-29T04:57:46.294Z,13.52
2023-01-29T05:00:22.723Z,12.25
2023-01-29T05:02:49.865Z,15.48
2023-01-29T05:05:19.834Z,16.50
2023-01-29T05:07:47.555Z,18.98
2023-01-29T05:10:17.392Z,19.15
2023-01-29T05:12:48.941Z,12.73
2023-01-29T05:15:23.457Z,17.40
2023-01-29T05:17:50.218Z,13.48
2023-01-29T05:20:17.618Z,14.48
2023-01-29T05:22:45.895Z,14.95
2023-01-29T05:25:33.127Z,17.77
2023-01-29T05:28:14.116Z,13.48
2023-01-29T05:30:40.760Z,20.50
2023-01-29T05:33:20.000Z,18.48
2023-01-29T05:35:47.110Z,15.98
2023-01-29T05:38:14.572Z,17.45
2023-01-29T05:40:41.582Z,14.55
2023-01-29T05:43:22.635Z,17.25
2023-01-29T05:46:00.203Z,15.80
2023-01-29T05:48:29.055Z,18.33
2023-01-29T05:51:01.163Z,15.23
2023-01-29T05:53:29.568Z,16.00
2023-01-29T05:55:57.345Z,18.00
2023-01-29T05:58:25.463Z,14.45
2023-01-29T06:00:52.130Z,12.00
2023-01-29T06:03:19.051Z,14.73
2023-01-29T06:05:45.719Z,17.05
2023-01-29T06:08:13.324Z,16.30
2023-01-29T06:10:40.169Z,16.65
2023-01-29T06:13:07.171Z,15.20
2023-01-29T06:15:34.165Z,19.27
2023-01-29T06:18:00.751Z,13.18
2023-01-29T06:20:27.453Z,12.27
2023-01-29T06:22:54.053Z,17.25
2023-01-29T06:25:20.668Z,14.20
2023-01-29T06:27:51.024Z,15.82
2023-01-29T06:30:18.070Z,14.43
2023-01-29T06:32:44.956Z,19.25
2023-01-29T06:35:11.790Z,13.98
2023-01-29T06:37:38.404Z,14.00
2023-01-29T06:40:05.563Z,17.67
2023-01-29T06:42:32.200Z,16.25
2023-01-29T06:44:58.894Z,21.55
2023-01-29T06:47:27.605Z,17.67
2023-01-29T06:49:54.214Z,18.00
2023-01-29T06:52:20.905Z,14.05
2023-01-29T06:54:47.579Z,16.15
2023-01-29T06:57:14.313Z,17.48
2023-01-29T06:59:40.889Z,14.65
2023-01-29T07:02:07.523Z,14.93
2023-01-29T07:04:35.543Z,17.92
2023-01-29T07:07:02.201Z,17.13
2023-01-29T07:09:28.835Z,15.82
2023-01-29T07:11:55.461Z,12.02
2023-01-29T07:14:22.146Z,19.45
2023-01-29T07:16:48.794Z,18.83
2023-01-29T07:19:15.536Z,18.90
2023-01-29T07:21:42.173Z,15.68
2023-01-29T07:24:09.154Z,18.73
2023-01-29T07:26:35.789Z,16.55
2023-01-29T07:29:02.452Z,14.63
2023-01-29T07:31:29.146Z,18.83
2023-01-29T07:33:56.044Z,11.93
2023-01-29T07:36:24.086Z,20.27
2023-01-29T07:38:51.405Z,19.77
2023-01-29T07:41:18.090Z,19.95
2023-01-29T07:43:44.819Z,19.27
2023-01-29T07:46:11.600Z,15.98
2023-01-29T07:48:38.346Z,10.32
2023-01-29T07:51:05.237Z,19.20
2023-01-29T07:53:31.983Z,19.80
2023-01-29T07:55:58.580Z,17.02
2023-01-29T07:58:25.295Z,14.75
2023-01-29T08:00:51.898Z,19.10
2023-01-29T08:03:20.316Z,12.23
2023-01-29T08:05:47.203Z,22.50
2023-01-29T08:08:14.307Z,21.50
2023-01-29T08:10:41.935Z,20.85
2023-01-29T08:13:09.784Z,18.05
2023-01-29T08:15:39.097Z,6.55
2023-01-29T08:18:06.145Z,14.02
2023-01-29T08:20:32.819Z,15.68
2023-01-29T08:23:04.766Z,14.57
2023-01-29T08:25:31.559Z,13.13
2023-01-29T08:27:59.321Z,18.13
2023-01-29T08:30:28.210Z,11.50
2023-01-29T08:32:55.248Z,7.53
2023-01-29T08:35:22.112Z,14.23
2023-01-29T08:38:03.489Z,17.48
2023-01-29T08:40:32.438Z,17.13
2023-01-29T08:43:02.197Z,17.52
2023-01-29T08:45:30.472Z,12.20
2023-01-29T08:47:57.159Z,17.33
2023-01-29T08:50:23.831Z,17.45
2023-01-29T08:52:50.542Z,18.05
2023-01-29T08:55:17.388Z,12.82
2023-01-29T08:57:44.297Z,15.88
2023-01-29T09:00:11.599Z,14.60
2023-01-29T09:02:38.367Z,13.20
2023-01-29T09:05:05.607Z,13.40
2023-01-29T09:07:32.671Z,15.82
2023-01-29T09:09:59.302Z,14.10
2023-01-29T09:12:25.983Z,13.20
2023-01-29T09:14:52.592Z,8.77
2023-01-29T09:17:19.349Z,14.25
2023-01-29T09:19:46.003Z,16.02
2023-01-29T09:22:12.761Z,12.90
2023-01-29T09:24:39.500Z,15.07
2023-01-29T09:27:06.296Z,14.68
2023-01-29T09:29:35.697Z,14.40
2023-01-29T09:32:04.837Z,13.98
2023-01-29T09:34:31.619Z,17.90
2023-01-29T09:36:58.882Z,16.50
2023-01-29T09:39:25.644Z,15.10
2023-01-29T09:42:15.859Z,9.65
2023-01-29T09:44:57.630Z,14.45
2023-01-29T09:47:26.702Z,16.33
2023-01-29T09:50:01.701Z,16.40
2023-01-29T09:52:32.506Z,15.65
2023-01-29T09:55:24.594Z,14.23
2023-01-29T09:58:00.831Z,11.70
2023-01-29T10:00:30.380Z,8.50
2023-01-29T10:03:34.428Z,14.25
2023-01-29T10:06:10.146Z,10.02
2023-01-29T10:09:04.379Z,13.02
2023-01-29T10:11:52.514Z,14.23
2023-01-29T10:14:59.622Z,10.52
2023-01-29T10:17:44.348Z,15.02
2023-01-29T10:20:19.627Z,17.88
2023-01-29T10:22:54.211Z,17.23
2023-01-29T10:25:22.523Z,12.23
2023-01-29T10:27:54.950Z,16.13
2023-01-29T10:30:34.589Z,15.18
2023-01-29T10:33:22.095Z,13.50
2023-01-29T10:35:55.321Z,11.10
2023-01-29T10:38:51.990Z,14.77
2023-01-29T10:41:42.788Z,17.13
2023-01-29T10:44:37.683Z,14.43
2023-01-29T10:47:23.646Z,12.48
2023-01-29T10:49:56.019Z,9.38
2023-01-29T10:52:43.874Z,13.63
2023-01-29T10:55:31.645Z,15.07
2023-01-29T10:58:31.498Z,18.98
2023-01-29T11:00:58.808Z,18.42
2023-01-29T11:03:29.160Z,15.32
2023-01-29T11:06:13.974Z,15.43
2023-01-29T11:08:52.774Z,13.70
2023-01-29T11:11:22.379Z,18.17
2023-01-29T11:13:59.295Z,13.88
2023-01-29T11:16:29.166Z,10.73
2023-01-29T11:18:58.286Z,15.25
2023-01-29T11:21:26.264Z,12.00
2023-01-29T11:24:06.452Z,14.43
2023-01-29T11:26:37.584Z,10.50
2023-01-29T11:29:04.256Z,17.17
2023-01-29T11:31:38.693Z,11.52
2023-01-29T11:34:16.745Z,8.18
2023-01-29T11:36:44.970Z,16.05
2023-01-29T11:39:17.865Z,17.48
2023-01-29T11:41:58.078Z,14.38
2023-01-29T11:44:31.911Z,13.85
2023-01-29T11:47:16.574Z,13.20
2023-01-29T11:49:50.364Z,13.70
2023-01-29T11:52:23.259Z,15.48
2023-01-29T11:55:00.960Z,16.55
2023-01-29T11:57:29.613Z,18.40
2023-01-29T12:00:00.351Z,14.50
2023-01-29T12:02:35.604Z,15.10
2023-01-29T12:05:06.863Z,19.88
2023-01-29T12:07:34.994Z,8.68
2023-01-29T12:10:01.938Z,10.80
2023-01-29T12:12:30.988Z,9.45
2023-01-29T12:15:25.508Z,10.75
2023-01-29T12:18:02.698Z,12.57
2023-01-29T12:20:38.669Z,11.30
2023-01-29T12:23:11.078Z,11.63
2023-01-29T12:25:55.265Z,10.85
2023-01-29T12:28:39.322Z,15.93
2023-01-29T12:31:15.529Z,10.00
2023-01-29T12:33:51.691Z,17.38
2023-01-29T12:36:57.537Z,12.30
2023-01-29T12:39:24.277Z,17.27
2023-01-29T12:41:57.723Z,17.13
2023-01-29T12:44:59.095Z,13.40
2023-01-29T12:47:41.614Z,17.85
2023-01-29T12:50:19.669Z,9.57
2023-01-29T12:52:51.752Z,19.17
2023-01-29T12:55:26.313Z,14.68
2023-01-29T12:58:00.214Z,21.55
2023-01-29T13:00:33.947Z,14.07
2023-01-29T13:03:00.600Z,10.57
2023-01-29T13:05:52.862Z,16.77
2023-01-29T13:08:19.428Z,17.00
2023-01-29T13:10:50.753Z,16.90
2023-01-29T13:13:54.010Z,10.75
2023-01-29T13:16:26.016Z,15.80
2023-01-29T13:19:03.635Z,15.63
2023-01-29T13:21:39.867Z,14.35
2023-01-29T13:24:15.499Z,18.10
2023-01-29T13:26:46.286Z,18.55
2023-01-29T13:29:28.859Z,15.77
2023-01-29T13:31:57.919Z,9.07
2023-01-29T13:34:28.524Z,11.75
2023-01-29T13:36:58.475Z,15.27
2023-01-29T13:39:37.999Z,8.90
2023-01-29T13:42:18.927Z,18.42
2023-01-29T13:44:51.381Z,10.73
2023-01-29T13:49:56.896Z,18.40
2023-01-29T13:52:39.994Z,12.70
2023-01-29T13:55:26.241Z,9.45
2023-01-29T13:57:56.624Z,18.20
2023-01-29T14:00:25.077Z,14.75
2023-01-29T14:02:54.734Z,8.50
2023-01-29T14:05:31.005Z,15.18
2023-01-29T14:07:59.258Z,14.88
2023-01-29T14:10:37.489Z,12.60
2023-01-29T14:13:04.034Z,14.50
2023-01-29T14:15:32.259Z,16.10
2023-01-29T14:18:11.027Z,15.05
2023-01-29T14:23:28.727Z,11.20
2023-01-29T14:25:56.262Z,14.27
2023-01-29T14:28:27.388Z,11.68
2023-01-29T14:30:55.609Z,16.85
2023-01-29T14:33:34.911Z,13.90
2023-01-29T14:36:06.824Z,16.42
2023-01-29T14:38:34.567Z,12.98
2023-01-29T14:41:14.179Z,13.88
2023-01-29T14:43:41.402Z,13.93
2023-01-29T14:46:36.005Z,12.50
2023-01-29T14:49:03.095Z,15.18
2023-01-29T14:51:35.823Z,12.00
2023-01-29T14:54:34.077Z,13.50
2023-01-29T14:57:06.020Z,10.77
2023-01-29T14:59:46.221Z,15.23
2023-01-29T15:02:37.585Z,15.15
2023-01-29T15:07:40.078Z,13.88
2023-01-29T15:10:25.155Z,9.80
2023-01-29T15:13:00.511Z,14.95
2023-01-29T15:15:54.029Z,6.85
2023-01-29T15:18:40.305Z,12.75
2023-01-29T15:21:18.379Z,10.30
2023-01-29T15:23:46.785Z,9.55
2023-01-29T15:26:19.252Z,11.48
2023-01-29T15:31:25.785Z,11.82
2023-01-29T15:33:55.333Z,9.35
2023-01-29T15:36:29.109Z,11.95
2023-01-29T15:39:15.748Z,12.00
2023-01-29T15:41:43.629Z,8.52
2023-01-29T15:44:19.960Z,10.75
2023-01-29T15:46:59.321Z,10.15
2023-01-29T15:49:32.929Z,8.63
2023-01-29T15:52:04.246Z,9.27
2023-01-29T15:54:32.398Z,9.02
2023-01-29T15:56:59.883Z,9.55
2023-01-29T15:59:31.112Z,9.18
2023-01-29T16:01:57.928Z,7.65
2023-01-29T16:04:29.013Z,8.75
2023-01-29T16:06:57.175Z,9.43
2023-01-29T16:09:26.429Z,5.63
2023-01-29T16:11:57.395Z,11.85
2023-01-29T16:14:25.758Z,7.57
2023-01-29T16:16:53.186Z,9.07
2023-01-29T16:19:29.826Z,8.23
2023-01-29T16:22:03.279Z,3.53
2023-01-29T16:24:32.305Z,7.82
2023-01-29T16:27:12.738Z,8.55
2023-01-29T16:29:39.903Z,9.60
2023-01-29T16:32:07.020Z,11.45
2023-01-29T16:34:40.178Z,7.88
2023-01-29T16:37:37.319Z,5.43
2023-01-29T16:40:24.899Z,8.10
2023-01-29T16:43:18.805Z,8.68
2023-01-29T16:46:19.554Z,7.80
2023-01-29T16:48:47.785Z,7.13
2023-01-29T16:51:22.192Z,8.35
2023-01-29T16:54:01.407Z,7.88
2023-01-29T16:56:33.047Z,9.15
2023-01-29T16:59:02.214Z,13.70
2023-01-29T17:01:30.374Z,6.63
2023-01-29T17:04:02.003Z,8.50
2023-01-29T17:06:31.426Z,8.85
2023-01-29T17:08:58.433Z,9.80
2023-01-29T17:11:33.431Z,9.18
2023-01-29T17:14:00.857Z,8.13
2023-01-29T17:16:32.202Z,11.85
2023-01-29T17:19:00.289Z,11.02
2023-01-29T17:21:28.415Z,9.20
2023-01-29T17:23:55.186Z,7.85
2023-01-29T17:26:23.092Z,10.38
2023-01-29T17:28:51.635Z,4.88
2023-01-29T17:31:18.400Z,4.72
2023-01-29T17:33:45.986Z,8.23
2023-01-29T17:36:15.507Z,9.05
2023-01-29T17:38:42.397Z,8.98
2023-01-29T17:41:24.363Z,11.57
2023-01-29T17:43:51.041Z,11.05
2023-01-29T17:46:18.554Z,9.25
2023-01-29T17:48:46.750Z,5.88
2023-01-29T17:51:15.621Z,11.55
2023-01-29T17:53:46.063Z,6.53
2023-01-29T17:56:27.699Z,11.77
2023-01-29T17:58:54.443Z,8.25
2023-01-29T18:01:21.066Z,7.72
2023-01-29T18:03:47.690Z,9.02
2023-01-29T18:06:28.101Z,8.10
2023-01-29T18:08:54.788Z,7.65
2023-01-29T18:11:21.774Z,6.22
2023-01-29T18:13:48.384Z,11.85
2023-01-29T18:16:15.083Z,6.57
2023-01-29T18:18:41.746Z,8.68
2023-01-29T18:21:08.414Z,10.18
2023-01-29T18:23:35.144Z,12.30
2023-01-29T18:26:01.774Z,6.03
2023-01-29T18:28:28.480Z,10.50
2023-01-29T18:30:55.281Z,10.55
2023-01-29T18:33:24.155Z,9.60
2023-01-29T18:35:50.786Z,13.98
2023-01-29T18:38:17.883Z,11.85
2023-01-29T18:40:44.670Z,16.42
2023-01-29T18:43:11.620Z,10.57
2023-01-29T18:45:38.421Z,7.22
2023-01-29T18:48:05.581Z,14.98
2023-01-29T18:50:32.960Z,8.43
2023-01-29T18:53:04.417Z,14.00
2023-01-29T18:55:31.399Z,12.50
2023-01-29T18:58:27.974Z,9.23
2023-01-29T19:00:47.231Z,6.63
2023-01-29T19:03:13.884Z,12.75
2023-01-29T19:05:40.624Z,5.95
2023-01-29T19:08:07.650Z,11.50
2023-01-29T19:10:34.524Z,6.70
2023-01-29T19:13:01.733Z,13.05
2023-01-29T19:15:28.437Z,16.25
2023-01-29T19:17:56.099Z,16.85
2023-01-29T19:20:22.695Z,12.98
2023-01-29T19:22:49.393Z,10.25
2023-01-29T19:25:17.731Z,10.75
2023-01-29T19:27:45.411Z,10.20
2023-01-29T19:30:13.115Z,9.90
2023-01-29T19:32:40.502Z,16.33
2023-01-29T19:35:07.260Z,16.25
2023-01-29T19:37:33.919Z,9.85
2023-01-29T19:40:00.576Z,8.07
2023-01-29T19:42:28.163Z,12.18
2023-01-29T19:44:54.905Z,8.20
2023-01-29T19:47:21.712Z,13.48
2023-01-29T19:49:48.509Z,8.60
2023-01-29T19:52:49.831Z,9.02
2023-01-29T19:55:17.655Z,10.02
2023-01-29T19:57:44.639Z,9.95
2023-01-29T20:00:12.260Z,9.18
2023-01-29T20:02:39.018Z,11.50
2023-01-29T20:05:07.062Z,7.65
2023-01-29T20:07:36.044Z,10.50
2023-01-29T20:10:03.537Z,7.63
2023-01-29T20:12:30.257Z,8.60
2023-01-29T20:14:56.898Z,11.23
2023-01-29T20:17:23.616Z,8.38
2023-01-29T20:19:50.325Z,5.05
2023-01-29T20:22:17.009Z,8.70
2023-01-29T20:24:43.660Z,10.05
2023-01-29T20:27:11.007Z,11.32
2023-01-29T20:29:39.055Z,11.25
2023-01-29T20:32:08.796Z,13.10
2023-01-29T20:34:36.173Z,6.78
2023-01-29T20:37:03.042Z,13.30
2023-01-29T20:39:29.696Z,11.73
2023-01-29T20:41:57.386Z,12.70
2023-01-29T20:44:25.026Z,13.40
2023-01-29T20:46:52.132Z,11.35
2023-01-29T20:49:19.475Z,11.65
2023-01-29T20:51:46.338Z,5.63
2023-01-29T20:54:13.136Z,9.13
2023-01-29T20:56:45.594Z,7.45
2023-01-29T20:59:13.093Z,11.75
2023-01-29T21:01:39.789Z,8.05
2023-01-29T21:04:06.520Z,6.40
2023-01-29T21:06:33.500Z,8.63
2023-01-29T21:09:00.144Z,9.55
2023-01-29T21:11:26.818Z,13.05
2023-01-29T21:13:57.621Z,7.22
2023-01-29T21:16:26.346Z,8.77
2023-01-29T21:18:57.628Z,9.63
2023-01-29T21:21:26.552Z,6.72
2023-01-29T21:23:53.771Z,5.72
2023-01-29T21:26:20.541Z,15.45
2023-01-29T21:28:47.292Z,8.07
2023-01-29T21:31:16.973Z,5.40
2023-01-29T21:33:44.312Z,3.90
2023-01-29T21:36:11.515Z,15.52
2023-01-29T21:38:38.764Z,12.98
2023-01-29T21:41:08.982Z,6.82
2023-01-29T21:43:36.361Z,11.30
2023-01-29T21:46:05.290Z,9.98
2023-01-29T21:48:32.110Z,8.10
2023-01-29T21:50:58.788Z,4.75
2023-01-29T21:53:25.454Z,6.32
2023-01-29T21:55:52.283Z,9.50
2023-01-29T21:58:20.885Z,6.25
2023-01-29T22:00:48.882Z,8.95
2023-01-29T22:03:15.726Z,7.65
2023-01-29T22:05:42.578Z,6.95
2023-01-29T22:08:10.030Z,4.75
2023-01-29T22:10:37.121Z,7.30
2023-01-29T22:13:03.821Z,7.18
2023-01-29T22:15:30.900Z,6.63
2023-01-29T22:17:57.625Z,11.20
2023-01-29T22:20:30.143Z,4.22
2023-01-29T22:25:25.043Z,7.85
2023-01-29T22:27:51.767Z,4.82
2023-01-29T22:30:19.243Z,10.45
2023-01-29T22:32:46.151Z,4.65
2023-01-29T22:35:12.738Z,2.17
2023-01-29T22:37:39.452Z,4.85
2023-01-29T22:40:06.876Z,5.97
2023-01-29T22:42:33.524Z,4.57
2023-01-29T22:45:00.202Z,3.33
2023-01-29T22:47:26.838Z,6.18
2023-01-29T22:49:53.533Z,5.25
2023-01-29T22:52:23.080Z,3.42
2023-01-29T22:54:51.515Z,8.70
2023-01-29T22:57:19.304Z,4.88
2023-01-29T22:59:46.091Z,4.72
2023-01-29T23:02:12.729Z,3.92
2023-01-29T23:04:39.343Z,6.88
2023-01-29T23:07:05.990Z,6.68
2023-01-29T23:09:32.698Z,3.17
2023-01-29T23:11:59.461Z,6.18
2023-01-29T23:14:26.142Z,3.95
2023-01-29T23:16:52.816Z,3.15
2023-01-29T23:19:19.494Z,7.00
2023-01-29T23:21:46.141Z,3.88
2023-01-29T23:24:13.379Z,4.85
2023-01-29T23:26:58.492Z,4.38
2023-01-29T23:31:51.699Z,6.70
2023-01-29T23:34:18.448Z,6.03
2023-01-29T23:36:45.046Z,3.95
2023-01-29T23:39:12.192Z,11.65
2023-01-29T23:41:38.822Z,6.72
2023-01-29T23:44:05.627Z,5.75
2023-01-29T23:46:32.537Z,4.97
2023-01-29T23:48:59.297Z,4.50
2023-01-29T23:51:26.009Z,7.03
2023-01-29T23:53:53.097Z,7.88
2023-01-29T23:56:20.119Z,5.75
2023-01-29T23:58:47.120Z,6.38
